sensor_id;sensor_type;location;lat;lon;timestamp;temperature;humidity
32811;DHT22;65470;47.324;8.548;2023-05-09T00:00:43;16.10;99.90
32811;DHT22;65470;47.324;8.548;2023-05-09T00:03:09;16.10;99.90
32811;DHT22;65470;47.324;8.548;2023-05-09T00:05:37;16.10;99.90
32811;DHT22;65470;47.324;8.548;2023-05-09T00:08:03;16.10;99.90
32811;DHT22;65470;47.324;8.548;2023-05-09T00:10:28;16.10;99.90
32811;DHT22;65470;47.324;8.548;2023-05-09T00:12:54;16.10;99.90
32811;DHT22;65470;47.324;8.548;2023-05-09T00:15:20;16.10;99.90
32811;DHT22;65470;47.324;8.548;2023-05-09T00:17:46;16.10;99.90
32811;DHT22;65470;47.324;8.548;2023-05-09T00:20:12;16.10;99.90
32811;DHT22;65470;47.324;8.548;2023-05-09T00:22:39;16.10;99.90
32811;DHT22;65470;47.324;8.548;2023-05-09T00:25:07;16.10;99.90
32811;DHT22;65470;47.324;8.548;2023-05-09T00:27:33;16.00;99.90
32811;DHT22;65470;47.324;8.548;2023-05-09T00:29:59;16.00;99.90
32811;DHT22;65470;47.324;8.548;2023-05-09T00:32:24;16.00;99.90
32811;DHT22;65470;47.324;8.548;2023-05-09T00:34:50;16.00;99.90
32811;DHT22;65470;47.324;8.548;2023-05-09T00:37:17;16.00;99.90
32811;DHT22;65470;47.324;8.548;2023-05-09T00:39:44;16.00;99.90
32811;DHT22;65470;47.324;8.548;2023-05-09T00:42:10;15.90;99.90
32811;DHT22;65470;47.324;8.548;2023-05-09T00:44:36;15.90;99.90
32811;DHT22;65470;47.324;8.548;2023-05-09T00:47:01;16.00;99.90
32811;DHT22;65470;47.324;8.548;2023-05-09T00:49:27;15.90;99.90
32811;DHT22;65470;47.324;8.548;2023-05-09T00:51:54;15.90;99.90
32811;DHT22;65470;47.324;8.548;2023-05-09T00:54:20;15.90;99.90
32811;DHT22;65470;47.324;8.548;2023-05-09T00:56:46;15.90;99.90
32811;DHT22;65470;47.324;8.548;2023-05-09T00:59:11;16.00;99.90
32811;DHT22;65470;47.324;8.548;2023-05-09T01:01:37;16.00;99.90
32811;DHT22;65470;47.324;8.548;2023-05-09T01:04:03;16.00;99.90
32811;DHT22;65470;47.324;8.548;2023-05-09T01:06:43;16.10;99.90
32811;DHT22;65470;47.324;8.548;2023-05-09T01:09:20;16.20;99.90
32811;DHT22;65470;47.324;8.548;2023-05-09T01:12:08;16.20;99.90
32811;DHT22;65470;47.324;8.548;2023-05-09T01:15:05;16.20;99.90
32811;DHT22;65470;47.324;8.548;2023-05-09T01:18:07;16.20;99.90
32811;DHT22;65470;47.324;8.548;2023-05-09T01:20:38;16.30;99.90
32811;DHT22;65470;47.324;8.548;2023-05-09T01:28:42;16.50;99.90
32811;DHT22;65470;47.324;8.548;2023-05-09T01:31:07;16.50;99.90
32811;DHT22;65470;47.324;8.548;2023-05-09T01:33:38;16.40;99.90
32811;DHT22;65470;47.324;8.548;2023-05-09T01:36:08;16.50;99.90
32811;DHT22;65470;47.324;8.548;2023-05-09T01:38:37;16.40;99.90
32811;DHT22;65470;47.324;8.548;2023-05-09T01:41:04;16.40;99.90
32811;DHT22;65470;47.324;8.548;2023-05-09T01:43:32;16.30;99.90
32811;DHT22;65470;47.324;8.548;2023-05-09T01:45:59;16.30;99.90
32811;DHT22;65470;47.324;8.548;2023-05-09T01:48:26;16.20;99.90
32811;DHT22;65470;47.324;8.548;2023-05-09T01:50:54;16.20;99.90
32811;DHT22;65470;47.324;8.548;2023-05-09T01:53:22;16.10;99.90
32811;DHT22;65470;47.324;8.548;2023-05-09T01:55:50;15.90;99.90
32811;DHT22;65470;47.324;8.548;2023-05-09T01:58:17;15.90;99.90
32811;DHT22;65470;47.324;8.548;2023-05-09T02:04:06;15.80;99.90
32811;DHT22;65470;47.324;8.548;2023-05-09T02:06:32;15.80;99.90
32811;DHT22;65470;47.324;8.548;2023-05-09T02:08:59;15.70;99.90
32811;DHT22;65470;47.324;8.548;2023-05-09T02:11:25;15.70;99.90
32811;DHT22;65470;47.324;8.548;2023-05-09T02:13:51;15.80;99.90
32811;DHT22;65470;47.324;8.548;2023-05-09T02:16:18;15.80;99.90
32811;DHT22;65470;47.324;8.548;2023-05-09T02:18:43;15.90;99.90
32811;DHT22;65470;47.324;8.548;2023-05-09T02:21:09;15.90;99.90
32811;DHT22;65470;47.324;8.548;2023-05-09T02:23:35;15.90;99.90
32811;DHT22;65470;47.324;8.548;2023-05-09T02:26:01;16.00;99.90
32811;DHT22;65470;47.324;8.548;2023-05-09T02:28:27;16.00;99.90
32811;DHT22;65470;47.324;8.548;2023-05-09T02:30:55;16.00;99.90
32811;DHT22;65470;47.324;8.548;2023-05-09T02:33:21;16.00;99.90
32811;DHT22;65470;47.324;8.548;2023-05-09T02:35:48;16.00;99.90
32811;DHT22;65470;47.324;8.548;2023-05-09T02:38:14;16.10;99.90
32811;DHT22;65470;47.324;8.548;2023-05-09T02:40:41;16.10;99.90
32811;DHT22;65470;47.324;8.548;2023-05-09T02:43:08;16.10;99.90
32811;DHT22;65470;47.324;8.548;2023-05-09T02:45:34;16.20;99.90
32811;DHT22;65470;47.324;8.548;2023-05-09T02:47:59;16.20;99.90
32811;DHT22;65470;47.324;8.548;2023-05-09T02:50:25;16.20;99.90
32811;DHT22;65470;47.324;8.548;2023-05-09T02:52:51;16.20;99.90
32811;DHT22;65470;47.324;8.548;2023-05-09T02:55:17;16.20;99.90
32811;DHT22;65470;47.324;8.548;2023-05-09T02:57:42;16.30;99.90
32811;DHT22;65470;47.324;8.548;2023-05-09T03:00:08;16.30;99.90
32811;DHT22;65470;47.324;8.548;2023-05-09T03:02:35;16.40;99.90
32811;DHT22;65470;47.324;8.548;2023-05-09T03:05:01;16.40;99.90
32811;DHT22;65470;47.324;8.548;2023-05-09T03:07:28;16.40;99.90
32811;DHT22;65470;47.324;8.548;2023-05-09T03:09:54;16.50;99.90
32811;DHT22;65470;47.324;8.548;2023-05-09T03:12:19;16.30;99.90
32811;DHT22;65470;47.324;8.548;2023-05-09T03:14:46;16.10;99.90
32811;DHT22;65470;47.324;8.548;2023-05-09T03:17:11;16.00;99.90
32811;DHT22;65470;47.324;8.548;2023-05-09T03:19:41;16.00;99.90
32811;DHT22;65470;47.324;8.548;2023-05-09T03:22:07;16.00;99.90
32811;DHT22;65470;47.324;8.548;2023-05-09T03:24:33;16.00;99.90
32811;DHT22;65470;47.324;8.548;2023-05-09T03:26:58;16.00;99.90
32811;DHT22;65470;47.324;8.548;2023-05-09T03:29:24;16.10;99.90
32811;DHT22;65470;47.324;8.548;2023-05-09T03:31:50;16.10;99.90
32811;DHT22;65470;47.324;8.548;2023-05-09T03:34:16;16.10;99.90
32811;DHT22;65470;47.324;8.548;2023-05-09T03:36:42;16.10;99.90
32811;DHT22;65470;47.324;8.548;2023-05-09T03:39:09;16.20;99.90
32811;DHT22;65470;47.324;8.548;2023-05-09T03:41:35;16.20;99.90
32811;DHT22;65470;47.324;8.548;2023-05-09T03:44:02;16.20;99.90
32811;DHT22;65470;47.324;8.548;2023-05-09T03:46:28;16.30;99.90
32811;DHT22;65470;47.324;8.548;2023-05-09T03:48:53;16.30;99.90
32811;DHT22;65470;47.324;8.548;2023-05-09T03:51:19;16.30;99.90
32811;DHT22;65470;47.324;8.548;2023-05-09T03:53:46;16.30;99.90
32811;DHT22;65470;47.324;8.548;2023-05-09T03:56:12;16.30;99.90
32811;DHT22;65470;47.324;8.548;2023-05-09T03:58:37;16.20;99.90
32811;DHT22;65470;47.324;8.548;2023-05-09T04:01:03;16.30;99.90
32811;DHT22;65470;47.324;8.548;2023-05-09T04:03:29;16.30;99.90
32811;DHT22;65470;47.324;8.548;2023-05-09T04:05:55;16.40;99.90
32811;DHT22;65470;47.324;8.548;2023-05-09T04:08:20;16.40;99.90
32811;DHT22;65470;47.324;8.548;2023-05-09T04:10:46;16.40;99.90
32811;DHT22;65470;47.324;8.548;2023-05-09T04:13:12;16.40;99.90
32811;DHT22;65470;47.324;8.548;2023-05-09T04:15:37;16.40;99.90
32811;DHT22;65470;47.324;8.548;2023-05-09T04:18:03;16.50;99.90
32811;DHT22;65470;47.324;8.548;2023-05-09T04:20:29;16.60;99.90
32811;DHT22;65470;47.324;8.548;2023-05-09T04:22:55;16.60;99.90
32811;DHT22;65470;47.324;8.548;2023-05-09T04:25:21;16.70;99.90
32811;DHT22;65470;47.324;8.548;2023-05-09T04:27:47;16.70;99.90
32811;DHT22;65470;47.324;8.548;2023-05-09T04:30:13;16.70;99.90
32811;DHT22;65470;47.324;8.548;2023-05-09T04:32:39;16.70;99.90
32811;DHT22;65470;47.324;8.548;2023-05-09T04:35:10;16.80;99.90
32811;DHT22;65470;47.324;8.548;2023-05-09T04:37:35;16.80;99.90
32811;DHT22;65470;47.324;8.548;2023-05-09T04:40:01;16.80;99.90
32811;DHT22;65470;47.324;8.548;2023-05-09T04:42:28;16.80;99.90
32811;DHT22;65470;47.324;8.548;2023-05-09T04:44:53;16.80;99.90
32811;DHT22;65470;47.324;8.548;2023-05-09T04:47:19;16.80;99.90
32811;DHT22;65470;47.324;8.548;2023-05-09T04:49:45;16.80;99.90
32811;DHT22;65470;47.324;8.548;2023-05-09T04:52:10;16.90;99.90
32811;DHT22;65470;47.324;8.548;2023-05-09T04:54:36;17.00;99.90
32811;DHT22;65470;47.324;8.548;2023-05-09T04:57:01;17.00;99.90
32811;DHT22;65470;47.324;8.548;2023-05-09T04:59:29;17.00;99.90
32811;DHT22;65470;47.324;8.548;2023-05-09T05:01:54;17.00;99.90
32811;DHT22;65470;47.324;8.548;2023-05-09T05:04:20;17.00;99.90
32811;DHT22;65470;47.324;8.548;2023-05-09T05:06:46;17.10;99.90
32811;DHT22;65470;47.324;8.548;2023-05-09T05:09:11;17.20;99.90
32811;DHT22;65470;47.324;8.548;2023-05-09T05:11:38;17.20;99.90
32811;DHT22;65470;47.324;8.548;2023-05-09T05:14:03;17.20;99.90
32811;DHT22;65470;47.324;8.548;2023-05-09T05:16:29;17.20;99.90
32811;DHT22;65470;47.324;8.548;2023-05-09T05:18:54;17.20;99.90
32811;DHT22;65470;47.324;8.548;2023-05-09T05:21:20;17.20;99.90
32811;DHT22;65470;47.324;8.548;2023-05-09T05:23:46;17.40;99.90
32811;DHT22;65470;47.324;8.548;2023-05-09T05:26:11;17.50;99.90
32811;DHT22;65470;47.324;8.548;2023-05-09T05:28:37;17.50;99.90
32811;DHT22;65470;47.324;8.548;2023-05-09T05:31:03;17.50;99.90
32811;DHT22;65470;47.324;8.548;2023-05-09T05:33:28;17.50;99.90
32811;DHT22;65470;47.324;8.548;2023-05-09T05:35:54;17.50;99.90
32811;DHT22;65470;47.324;8.548;2023-05-09T05:38:19;17.60;99.90
32811;DHT22;65470;47.324;8.548;2023-05-09T05:40:45;17.70;99.90
32811;DHT22;65470;47.324;8.548;2023-05-09T05:43:11;17.60;99.90
32811;DHT22;65470;47.324;8.548;2023-05-09T05:45:36;17.60;99.90
32811;DHT22;65470;47.324;8.548;2023-05-09T05:48:02;17.60;99.90
32811;DHT22;65470;47.324;8.548;2023-05-09T05:50:28;17.60;99.90
32811;DHT22;65470;47.324;8.548;2023-05-09T05:52:53;17.60;99.90
32811;DHT22;65470;47.324;8.548;2023-05-09T05:55:19;17.60;99.90
32811;DHT22;65470;47.324;8.548;2023-05-09T05:57:45;17.60;99.90
32811;DHT22;65470;47.324;8.548;2023-05-09T06:00:12;17.60;99.90
32811;DHT22;65470;47.324;8.548;2023-05-09T06:02:41;17.60;99.90
32811;DHT22;65470;47.324;8.548;2023-05-09T06:05:09;17.70;99.90
32811;DHT22;65470;47.324;8.548;2023-05-09T06:07:35;17.80;99.90
32811;DHT22;65470;47.324;8.548;2023-05-09T06:10:01;17.80;99.90
32811;DHT22;65470;47.324;8.548;2023-05-09T06:12:26;18.00;99.90
32811;DHT22;65470;47.324;8.548;2023-05-09T06:14:52;18.10;99.90
32811;DHT22;65470;47.324;8.548;2023-05-09T06:17:18;18.20;99.90
32811;DHT22;65470;47.324;8.548;2023-05-09T06:19:43;18.20;99.90
32811;DHT22;65470;47.324;8.548;2023-05-09T06:22:09;18.30;99.90
32811;DHT22;65470;47.324;8.548;2023-05-09T06:24:35;18.30;99.90
32811;DHT22;65470;47.324;8.548;2023-05-09T06:27:01;18.30;99.90
32811;DHT22;65470;47.324;8.548;2023-05-09T06:29:26;18.20;99.90
32811;DHT22;65470;47.324;8.548;2023-05-09T06:31:52;18.10;99.90
32811;DHT22;65470;47.324;8.548;2023-05-09T06:34:18;18.20;99.90
32811;DHT22;65470;47.324;8.548;2023-05-09T06:36:43;18.30;99.90
32811;DHT22;65470;47.324;8.548;2023-05-09T06:39:09;18.50;99.90
32811;DHT22;65470;47.324;8.548;2023-05-09T06:41:35;18.70;99.90
32811;DHT22;65470;47.324;8.548;2023-05-09T06:44:00;18.80;99.90
32811;DHT22;65470;47.324;8.548;2023-05-09T06:46:27;18.90;99.90
32811;DHT22;65470;47.324;8.548;2023-05-09T06:48:53;19.00;99.90
32811;DHT22;65470;47.324;8.548;2023-05-09T06:51:18;19.10;99.90
32811;DHT22;65470;47.324;8.548;2023-05-09T06:53:44;19.30;99.90
32811;DHT22;65470;47.324;8.548;2023-05-09T06:56:10;19.40;99.90
32811;DHT22;65470;47.324;8.548;2023-05-09T06:58:36;19.50;99.90
32811;DHT22;65470;47.324;8.548;2023-05-09T07:01:02;19.60;99.90
32811;DHT22;65470;47.324;8.548;2023-05-09T07:03:29;19.80;99.90
32811;DHT22;65470;47.324;8.548;2023-05-09T07:05:54;19.80;99.90
32811;DHT22;65470;47.324;8.548;2023-05-09T07:08:23;19.80;99.90
32811;DHT22;65470;47.324;8.548;2023-05-09T07:10:49;19.90;99.90
32811;DHT22;65470;47.324;8.548;2023-05-09T07:13:15;19.80;99.90
32811;DHT22;65470;47.324;8.548;2023-05-09T07:15:40;20.00;99.90
32811;DHT22;65470;47.324;8.548;2023-05-09T07:18:06;20.10;99.90
32811;DHT22;65470;47.324;8.548;2023-05-09T07:20:32;20.30;99.90
32811;DHT22;65470;47.324;8.548;2023-05-09T07:22:57;20.40;99.90
32811;DHT22;65470;47.324;8.548;2023-05-09T07:25:23;20.50;99.90
32811;DHT22;65470;47.324;8.548;2023-05-09T07:27:49;20.70;99.90
32811;DHT22;65470;47.324;8.548;2023-05-09T07:30:14;20.90;99.90
32811;DHT22;65470;47.324;8.548;2023-05-09T07:32:40;21.20;99.90
32811;DHT22;65470;47.324;8.548;2023-05-09T07:35:06;21.30;99.90
32811;DHT22;65470;47.324;8.548;2023-05-09T07:37:31;21.40;99.90
32811;DHT22;65470;47.324;8.548;2023-05-09T07:39:57;21.50;99.90
32811;DHT22;65470;47.324;8.548;2023-05-09T07:42:23;21.80;99.90
32811;DHT22;65470;47.324;8.548;2023-05-09T07:44:48;22.30;99.90
32811;DHT22;65470;47.324;8.548;2023-05-09T07:47:14;22.60;99.90
32811;DHT22;65470;47.324;8.548;2023-05-09T07:49:39;22.60;99.90
32811;DHT22;65470;47.324;8.548;2023-05-09T07:52:07;23.10;99.90
32811;DHT22;65470;47.324;8.548;2023-05-09T07:54:33;23.60;99.90
32811;DHT22;65470;47.324;8.548;2023-05-09T07:56:58;23.60;99.90
32811;DHT22;65470;47.324;8.548;2023-05-09T07:59:24;23.90;99.90
32811;DHT22;65470;47.324;8.548;2023-05-09T08:01:50;24.40;99.90
32811;DHT22;65470;47.324;8.548;2023-05-09T08:04:16;25.10;99.90
32811;DHT22;65470;47.324;8.548;2023-05-09T08:06:41;26.20;99.90
32811;DHT22;65470;47.324;8.548;2023-05-09T08:09:07;26.50;99.50
32811;DHT22;65470;47.324;8.548;2023-05-09T08:11:33;26.70;96.40
32811;DHT22;65470;47.324;8.548;2023-05-09T08:14:00;26.90;95.40
32811;DHT22;65470;47.324;8.548;2023-05-09T08:16:26;28.10;93.20
32811;DHT22;65470;47.324;8.548;2023-05-09T08:18:51;29.30;90.60
32811;DHT22;65470;47.324;8.548;2023-05-09T08:21:17;30.00;84.10
32811;DHT22;65470;47.324;8.548;2023-05-09T08:23:43;30.30;81.00
32811;DHT22;65470;47.324;8.548;2023-05-09T08:26:09;30.10;81.50
32811;DHT22;65470;47.324;8.548;2023-05-09T08:28:34;29.90;81.30
32811;DHT22;65470;47.324;8.548;2023-05-09T08:31:00;30.50;77.10
32811;DHT22;65470;47.324;8.548;2023-05-09T08:33:25;30.30;77.20
32811;DHT22;65470;47.324;8.548;2023-05-09T08:35:52;29.90;79.00
32811;DHT22;65470;47.324;8.548;2023-05-09T08:38:18;29.90;80.30
32811;DHT22;65470;47.324;8.548;2023-05-09T08:40:44;30.50;75.70
32811;DHT22;65470;47.324;8.548;2023-05-09T08:43:11;30.60;77.00
32811;DHT22;65470;47.324;8.548;2023-05-09T08:45:51;31.00;69.70
32811;DHT22;65470;47.324;8.548;2023-05-09T08:48:18;30.40;73.10
32811;DHT22;65470;47.324;8.548;2023-05-09T08:50:44;30.60;75.40
32811;DHT22;65470;47.324;8.548;2023-05-09T08:53:12;30.80;75.90
32811;DHT22;65470;47.324;8.548;2023-05-09T08:55:39;30.70;75.70
32811;DHT22;65470;47.324;8.548;2023-05-09T08:58:05;31.30;72.70
32811;DHT22;65470;47.324;8.548;2023-05-09T09:00:32;32.00;68.90
32811;DHT22;65470;47.324;8.548;2023-05-09T09:03:00;32.20;67.90
32811;DHT22;65470;47.324;8.548;2023-05-09T09:05:27;32.00;71.40
32811;DHT22;65470;47.324;8.548;2023-05-09T09:07:54;31.90;68.50
32811;DHT22;65470;47.324;8.548;2023-05-09T09:10:22;32.10;67.50
32811;DHT22;65470;47.324;8.548;2023-05-09T09:12:52;32.30;68.70
32811;DHT22;65470;47.324;8.548;2023-05-09T09:15:19;32.30;66.90
32811;DHT22;65470;47.324;8.548;2023-05-09T09:17:47;32.10;68.20
32811;DHT22;65470;47.324;8.548;2023-05-09T09:20:15;32.30;65.50
32811;DHT22;65470;47.324;8.548;2023-05-09T09:22:43;32.30;66.40
32811;DHT22;65470;47.324;8.548;2023-05-09T09:25:10;31.90;68.10
32811;DHT22;65470;47.324;8.548;2023-05-09T09:27:35;31.90;66.60
32811;DHT22;65470;47.324;8.548;2023-05-09T09:30:08;31.80;66.70
32811;DHT22;65470;47.324;8.548;2023-05-09T09:32:35;31.60;70.10
32811;DHT22;65470;47.324;8.548;2023-05-09T09:35:08;31.80;68.70
32811;DHT22;65470;47.324;8.548;2023-05-09T09:37:35;32.30;65.80
32811;DHT22;65470;47.324;8.548;2023-05-09T09:40:02;32.10;68.20
32811;DHT22;65470;47.324;8.548;2023-05-09T09:42:42;32.60;64.80
32811;DHT22;65470;47.324;8.548;2023-05-09T09:45:16;32.90;64.10
32811;DHT22;65470;47.324;8.548;2023-05-09T09:47:43;33.20;58.90
32811;DHT22;65470;47.324;8.548;2023-05-09T09:50:19;33.30;62.70
32811;DHT22;65470;47.324;8.548;2023-05-09T09:52:51;33.10;62.90
32811;DHT22;65470;47.324;8.548;2023-05-09T09:55:18;33.00;64.30
32811;DHT22;65470;47.324;8.548;2023-05-09T09:57:44;33.00;63.70
32811;DHT22;65470;47.324;8.548;2023-05-09T10:00:12;33.20;62.70
32811;DHT22;65470;47.324;8.548;2023-05-09T10:02:54;33.30;62.50
32811;DHT22;65470;47.324;8.548;2023-05-09T10:05:27;33.10;58.70
32811;DHT22;65470;47.324;8.548;2023-05-09T10:07:55;33.30;57.80
32811;DHT22;65470;47.324;8.548;2023-05-09T10:10:41;33.20;57.10
32811;DHT22;65470;47.324;8.548;2023-05-09T10:13:09;32.80;57.50
32811;DHT22;65470;47.324;8.548;2023-05-09T10:15:36;32.80;58.90
32811;DHT22;65470;47.324;8.548;2023-05-09T10:18:02;32.90;59.50
32811;DHT22;65470;47.324;8.548;2023-05-09T10:20:30;33.10;58.30
32811;DHT22;65470;47.324;8.548;2023-05-09T10:22:57;33.00;60.40
32811;DHT22;65470;47.324;8.548;2023-05-09T10:25:46;33.20;58.20
32811;DHT22;65470;47.324;8.548;2023-05-09T10:28:17;33.50;59.70
32811;DHT22;65470;47.324;8.548;2023-05-09T10:31:06;33.30;57.50
32811;DHT22;65470;47.324;8.548;2023-05-09T10:33:46;32.90;60.10
32811;DHT22;65470;47.324;8.548;2023-05-09T10:36:15;32.30;59.70
32811;DHT22;65470;47.324;8.548;2023-05-09T10:38:42;32.60;57.60
32811;DHT22;65470;47.324;8.548;2023-05-09T10:41:09;32.60;60.40
32811;DHT22;65470;47.324;8.548;2023-05-09T10:43:35;32.50;60.80
32811;DHT22;65470;47.324;8.548;2023-05-09T10:46:03;32.50;59.80
32811;DHT22;65470;47.324;8.548;2023-05-09T10:48:31;32.30;60.20
32811;DHT22;65470;47.324;8.548;2023-05-09T10:50:56;31.90;59.20
32811;DHT22;65470;47.324;8.548;2023-05-09T10:53:22;31.90;57.90
32811;DHT22;65470;47.324;8.548;2023-05-09T10:55:54;31.90;57.90
32811;DHT22;65470;47.324;8.548;2023-05-09T10:58:28;31.80;58.30
32811;DHT22;65470;47.324;8.548;2023-05-09T11:00:58;31.50;58.70
32811;DHT22;65470;47.324;8.548;2023-05-09T11:03:25;31.30;61.80
32811;DHT22;65470;47.324;8.548;2023-05-09T11:05:53;31.30;58.50
32811;DHT22;65470;47.324;8.548;2023-05-09T11:10:48;31.40;59.00
32811;DHT22;65470;47.324;8.548;2023-05-09T11:13:18;31.50;58.60
32811;DHT22;65470;47.324;8.548;2023-05-09T11:18:25;31.10;59.10
32811;DHT22;65470;47.324;8.548;2023-05-09T11:20:51;31.10;62.20
32811;DHT22;65470;47.324;8.548;2023-05-09T11:23:24;31.00;60.10
32811;DHT22;65470;47.324;8.548;2023-05-09T11:25:50;31.10;59.30
32811;DHT22;65470;47.324;8.548;2023-05-09T11:28:34;30.80;60.00
32811;DHT22;65470;47.324;8.548;2023-05-09T11:31:17;30.80;62.90
32811;DHT22;65470;47.324;8.548;2023-05-09T11:33:44;30.60;64.40
32811;DHT22;65470;47.324;8.548;2023-05-09T11:38:42;30.30;64.90
32811;DHT22;65470;47.324;8.548;2023-05-09T11:41:08;30.40;64.00
32811;DHT22;65470;47.324;8.548;2023-05-09T11:43:37;30.50;65.90
32811;DHT22;65470;47.324;8.548;2023-05-09T11:46:03;30.50;64.90
32811;DHT22;65470;47.324;8.548;2023-05-09T11:48:29;30.50;62.40
32811;DHT22;65470;47.324;8.548;2023-05-09T11:50:55;30.50;64.50
32811;DHT22;65470;47.324;8.548;2023-05-09T11:53:21;30.50;64.60
32811;DHT22;65470;47.324;8.548;2023-05-09T11:55:47;30.60;63.70
32811;DHT22;65470;47.324;8.548;2023-05-09T11:58:13;30.70;65.20
32811;DHT22;65470;47.324;8.548;2023-05-09T12:00:45;30.60;63.60
32811;DHT22;65470;47.324;8.548;2023-05-09T12:03:11;30.50;62.00
32811;DHT22;65470;47.324;8.548;2023-05-09T12:05:37;30.40;62.60
32811;DHT22;65470;47.324;8.548;2023-05-09T12:08:07;30.10;64.10
32811;DHT22;65470;47.324;8.548;2023-05-09T12:10:37;30.00;63.70
32811;DHT22;65470;47.324;8.548;2023-05-09T12:13:03;30.00;64.10
32811;DHT22;65470;47.324;8.548;2023-05-09T12:15:28;30.00;65.40
32811;DHT22;65470;47.324;8.548;2023-05-09T12:18:05;30.00;63.40
32811;DHT22;65470;47.324;8.548;2023-05-09T12:20:48;29.80;63.90
32811;DHT22;65470;47.324;8.548;2023-05-09T12:23:17;29.80;66.00
32811;DHT22;65470;47.324;8.548;2023-05-09T12:25:53;29.50;68.80
32811;DHT22;65470;47.324;8.548;2023-05-09T12:28:23;29.20;67.80
32811;DHT22;65470;47.324;8.548;2023-05-09T12:30:50;29.20;69.80
32811;DHT22;65470;47.324;8.548;2023-05-09T12:33:17;29.20;67.70
32811;DHT22;65470;47.324;8.548;2023-05-09T12:35:47;29.20;67.60
32811;DHT22;65470;47.324;8.548;2023-05-09T12:38:22;29.10;68.20
32811;DHT22;65470;47.324;8.548;2023-05-09T12:40:58;29.00;67.80
32811;DHT22;65470;47.324;8.548;2023-05-09T12:43:24;29.00;69.00
32811;DHT22;65470;47.324;8.548;2023-05-09T12:45:51;28.80;70.90
32811;DHT22;65470;47.324;8.548;2023-05-09T12:48:17;28.60;68.40
32811;DHT22;65470;47.324;8.548;2023-05-09T12:50:46;28.50;69.20
32811;DHT22;65470;47.324;8.548;2023-05-09T12:53:12;28.40;70.40
32811;DHT22;65470;47.324;8.548;2023-05-09T12:55:38;28.20;69.60
32811;DHT22;65470;47.324;8.548;2023-05-09T12:58:08;28.30;70.40
32811;DHT22;65470;47.324;8.548;2023-05-09T13:00:43;28.30;71.20
32811;DHT22;65470;47.324;8.548;2023-05-09T13:03:25;28.50;70.00
32811;DHT22;65470;47.324;8.548;2023-05-09T13:06:01;28.60;72.00
32811;DHT22;65470;47.324;8.548;2023-05-09T13:08:28;28.70;69.60
32811;DHT22;65470;47.324;8.548;2023-05-09T13:10:53;28.80;69.20
32811;DHT22;65470;47.324;8.548;2023-05-09T13:13:20;28.80;69.00
32811;DHT22;65470;47.324;8.548;2023-05-09T13:15:47;29.00;67.40
32811;DHT22;65470;47.324;8.548;2023-05-09T13:18:13;29.20;66.70
32811;DHT22;65470;47.324;8.548;2023-05-09T13:20:38;29.40;67.70
32811;DHT22;65470;47.324;8.548;2023-05-09T13:23:04;29.50;68.10
32811;DHT22;65470;47.324;8.548;2023-05-09T13:25:30;29.60;65.90
32811;DHT22;65470;47.324;8.548;2023-05-09T13:27:56;29.40;67.70
32811;DHT22;65470;47.324;8.548;2023-05-09T13:30:21;29.20;68.10
32811;DHT22;65470;47.324;8.548;2023-05-09T13:32:47;29.20;69.90
32811;DHT22;65470;47.324;8.548;2023-05-09T13:35:14;29.00;68.30
32811;DHT22;65470;47.324;8.548;2023-05-09T13:37:39;28.90;70.00
32811;DHT22;65470;47.324;8.548;2023-05-09T13:40:05;28.60;70.90
32811;DHT22;65470;47.324;8.548;2023-05-09T13:42:32;28.40;71.40
32811;DHT22;65470;47.324;8.548;2023-05-09T13:44:59;28.30;71.40
32811;DHT22;65470;47.324;8.548;2023-05-09T13:47:25;28.20;69.90
32811;DHT22;65470;47.324;8.548;2023-05-09T13:49:51;28.00;71.50
32811;DHT22;65470;47.324;8.548;2023-05-09T13:52:17;28.10;69.70
32811;DHT22;65470;47.324;8.548;2023-05-09T13:54:43;28.10;71.40
32811;DHT22;65470;47.324;8.548;2023-05-09T13:57:09;28.10;69.30
32811;DHT22;65470;47.324;8.548;2023-05-09T13:59:35;28.10;68.10
32811;DHT22;65470;47.324;8.548;2023-05-09T14:02:00;28.00;68.30
32811;DHT22;65470;47.324;8.548;2023-05-09T14:04:27;27.70;70.30
32811;DHT22;65470;47.324;8.548;2023-05-09T14:06:54;27.60;71.70
32811;DHT22;65470;47.324;8.548;2023-05-09T14:09:20;27.40;70.30
32811;DHT22;65470;47.324;8.548;2023-05-09T14:11:50;27.20;71.50
32811;DHT22;65470;47.324;8.548;2023-05-09T14:14:19;27.00;72.10
32811;DHT22;65470;47.324;8.548;2023-05-09T14:16:46;26.90;71.70
32811;DHT22;65470;47.324;8.548;2023-05-09T14:19:12;26.70;72.30
32811;DHT22;65470;47.324;8.548;2023-05-09T14:21:42;26.60;76.00
32811;DHT22;65470;47.324;8.548;2023-05-09T14:24:09;26.20;75.20
32811;DHT22;65470;47.324;8.548;2023-05-09T14:26:35;26.10;72.70
32811;DHT22;65470;47.324;8.548;2023-05-09T14:29:02;25.80;73.50
32811;DHT22;65470;47.324;8.548;2023-05-09T14:31:28;25.60;74.00
32811;DHT22;65470;47.324;8.548;2023-05-09T14:33:54;25.40;74.60
32811;DHT22;65470;47.324;8.548;2023-05-09T14:36:20;25.20;76.00
32811;DHT22;65470;47.324;8.548;2023-05-09T14:38:46;25.00;74.00
32811;DHT22;65470;47.324;8.548;2023-05-09T14:41:13;25.00;75.70
32811;DHT22;65470;47.324;8.548;2023-05-09T14:43:39;24.80;76.60
32811;DHT22;65470;47.324;8.548;2023-05-09T14:46:05;24.70;78.60
32811;DHT22;65470;47.324;8.548;2023-05-09T14:48:31;24.30;78.00
32811;DHT22;65470;47.324;8.548;2023-05-09T14:50:58;24.10;83.10
32811;DHT22;65470;47.324;8.548;2023-05-09T14:53:24;23.80;85.70
32811;DHT22;65470;47.324;8.548;2023-05-09T14:55:50;23.50;88.20
32811;DHT22;65470;47.324;8.548;2023-05-09T14:58:18;23.10;89.20
32811;DHT22;65470;47.324;8.548;2023-05-09T15:00:44;22.90;89.90
32811;DHT22;65470;47.324;8.548;2023-05-09T15:03:10;22.80;90.80
32811;DHT22;65470;47.324;8.548;2023-05-09T15:05:36;22.70;90.70
32811;DHT22;65470;47.324;8.548;2023-05-09T15:08:02;22.70;91.20
32811;DHT22;65470;47.324;8.548;2023-05-09T15:10:28;22.70;91.30
32811;DHT22;65470;47.324;8.548;2023-05-09T15:12:54;22.70;91.80
32811;DHT22;65470;47.324;8.548;2023-05-09T15:15:21;22.70;91.60
32811;DHT22;65470;47.324;8.548;2023-05-09T15:17:50;22.60;92.90
32811;DHT22;65470;47.324;8.548;2023-05-09T15:20:17;22.50;93.50
32811;DHT22;65470;47.324;8.548;2023-05-09T15:22:47;22.10;93.30
32811;DHT22;65470;47.324;8.548;2023-05-09T15:25:14;21.90;94.90
32811;DHT22;65470;47.324;8.548;2023-05-09T15:27:39;21.80;95.90
32811;DHT22;65470;47.324;8.548;2023-05-09T15:30:06;21.60;97.20
32811;DHT22;65470;47.324;8.548;2023-05-09T15:32:32;21.40;99.90
32811;DHT22;65470;47.324;8.548;2023-05-09T15:34:58;21.30;99.90
32811;DHT22;65470;47.324;8.548;2023-05-09T15:37:24;21.30;99.90
32811;DHT22;65470;47.324;8.548;2023-05-09T15:39:50;21.40;99.90
32811;DHT22;65470;47.324;8.548;2023-05-09T15:42:16;21.30;99.90
32811;DHT22;65470;47.324;8.548;2023-05-09T15:44:43;21.30;99.90
32811;DHT22;65470;47.324;8.548;2023-05-09T15:47:09;21.10;99.90